Time;durP1;ratioP1;P1;durP2;ratioP2;P2;SDS_P1;SDS_P2;PMS_P1;PMS_P2;Temp;Humidity;BMP_temperature;BMP_pressure;BME280_temperature;BME280_humidity;BME280_pressure;Samples;Min_cycle;Max_cycle;Signal;HPM_P1;HPM_P2
2022/09/29 00:00:26;;;;;;;19.60;13.80;;;6.10;99.90;;;;;;5020646;28;20022;-50
2022/09/29 00:02:52;;;;;;;20.52;13.75;;;6.10;99.90;;;;;;5020711;28;20026;-47
2022/09/29 00:05:18;;;;;;;18.88;13.68;;;6.10;99.90;;;;;;5025960;28;20100;-48
2022/09/29 00:07:43;;;;;;;18.00;12.75;;;6.00;99.90;;;;;;5002365;28;20313;-48
2022/09/29 00:10:09;;;;;;;17.55;13.10;;;6.00;99.90;;;;;;5027110;28;20145;-50
2022/09/29 00:12:34;;;;;;;16.83;12.98;;;6.00;99.90;;;;;;5017320;28;20038;-53
2022/09/29 00:15:00;;;;;;;19.73;13.23;;;6.00;99.90;;;;;;5028997;28;20021;-50
2022/09/29 00:17:25;;;;;;;20.58;12.98;;;5.90;99.90;;;;;;5031365;28;20078;-48
2022/09/29 00:19:51;;;;;;;16.38;11.18;;;5.90;99.90;;;;;;5027933;28;20032;-50
2022/09/29 00:22:17;;;;;;;17.63;12.63;;;5.90;99.90;;;;;;5030870;28;20036;-48
2022/09/29 00:24:42;;;;;;;20.17;13.93;;;5.90;99.90;;;;;;5027434;28;20029;-48
2022/09/29 00:27:08;;;;;;;16.48;12.38;;;5.90;99.90;;;;;;5029750;28;20439;-48
2022/09/29 00:29:33;;;;;;;15.82;12.32;;;5.80;99.90;;;;;;5026314;28;20171;-50
2022/09/29 00:31:59;;;;;;;19.33;13.32;;;5.80;99.90;;;;;;5028565;28;20052;-48
2022/09/29 00:34:24;;;;;;;23.02;12.98;;;5.80;99.90;;;;;;5031574;28;20028;-50
2022/09/29 00:36:50;;;;;;;18.52;12.93;;;5.80;99.90;;;;;;5027797;28;20030;-48
2022/09/29 00:39:15;;;;;;;15.95;12.80;;;5.80;99.90;;;;;;5030821;28;20021;-48
2022/09/29 00:41:41;;;;;;;16.45;11.88;;;5.80;99.90;;;;;;5026979;28;20180;-50
2022/09/29 00:44:12;;;;;;;18.90;12.70;;;5.70;99.90;;;;;;5029047;28;20022;-52
2022/09/29 00:46:51;;;;;;;20.08;13.63;;;5.70;99.90;;;;;;5026353;28;20403;-49
2022/09/29 00:49:31;;;;;;;19.70;12.63;;;5.70;99.90;;;;;;5026645;28;20075;-48
2022/09/29 00:52:04;;;;;;;17.92;13.05;;;5.70;99.90;;;;;;5029658;28;20025;-48
2022/09/29 00:54:45;;;;;;;19.25;13.07;;;5.70;99.90;;;;;;5028897;28;20522;-49
2022/09/29 00:57:15;;;;;;;18.60;12.68;;;5.70;99.90;;;;;;5028119;28;20113;-49
2022/09/29 01:00:09;;;;;;;20.40;12.98;;;5.60;99.90;;;;;;5026257;28;20029;-52
2022/09/29 01:02:45;;;;;;;18.05;12.73;;;5.60;99.90;;;;;;5013747;28;20531;-49
2022/09/29 01:05:13;;;;;;;;;;;5.60;99.90;;;;;;5027988;28;20032;-53
2022/09/29 01:07:39;;;;;;;16.58;11.77;;;5.60;99.90;;;;;;5030152;28;19909;-48
2022/09/29 01:10:06;;;;;;;17.80;12.48;;;5.60;99.90;;;;;;5027949;28;20039;-48
2022/09/29 01:12:32;;;;;;;17.65;12.68;;;5.50;99.90;;;;;;5029491;28;20029;-50
2022/09/29 01:14:58;;;;;;;19.98;12.30;;;5.50;99.90;;;;;;5025779;28;20179;-48
2022/09/29 01:17:25;;;;;;;15.18;11.88;;;5.50;99.90;;;;;;5030423;28;20017;-49
2022/09/29 01:19:50;;;;;;;16.25;12.25;;;5.50;99.90;;;;;;5026995;28;20032;-48
2022/09/29 01:22:23;;;;;;;20.63;13.20;;;5.50;99.90;;;;;;5029913;28;20136;-48
2022/09/29 01:25:00;;;;;;;18.88;11.88;;;5.50;99.90;;;;;;5026486;28;20025;-49
2022/09/29 01:27:47;;;;;;;16.52;12.13;;;5.40;99.90;;;;;;5017547;28;20102;-50
2022/09/29 01:30:18;;;;;;;16.67;11.05;;;5.40;99.90;;;;;;5017642;28;20061;-48
2022/09/29 01:33:02;;;;;;;16.63;11.73;;;5.40;99.90;;;;;;5046951;22;20041;-46
2022/09/29 01:35:51;;;;;;;16.20;12.27;;;5.30;99.90;;;;;;5033133;28;20504;-45
2022/09/29 01:38:28;;;;;;;15.32;11.18;;;5.30;99.90;;;;;;5032711;28;20017;-47
2022/09/29 01:41:16;;;;;;;15.93;10.68;;;5.30;99.90;;;;;;5036607;28;20400;-48
2022/09/29 01:43:50;;;;;;;17.85;12.13;;;5.30;99.90;;;;;;5040485;28;20556;-45
2022/09/29 01:46:31;;;;;;;17.17;12.30;;;5.30;99.90;;;;;;5029625;28;20517;-47
2022/09/29 01:48:59;;;;;;;15.57;11.73;;;5.30;99.90;;;;;;5040391;28;20051;-47
2022/09/29 01:51:56;;;;;;;20.00;12.57;;;5.30;99.90;;;;;;5041776;28;20025;-48
2022/09/29 01:54:35;;;;;;;17.65;12.55;;;5.30;99.90;;;;;;5041795;28;20021;-45
2022/09/29 01:57:08;;;;;;;19.65;11.65;;;5.20;99.90;;;;;;5039568;28;20055;-45
2022/09/29 01:59:43;;;;;;;14.98;11.27;;;5.20;99.90;;;;;;5038452;28;20349;-46
2022/09/29 02:02:16;;;;;;;16.65;11.80;;;5.20;99.90;;;;;;5043985;28;20115;-45
2022/09/29 02:04:49;;;;;;;16.25;11.20;;;5.20;99.90;;;;;;5033853;28;20036;-48
2022/09/29 02:07:42;;;;;;;17.88;11.90;;;5.20;99.90;;;;;;5030576;28;20026;-45
2022/09/29 02:10:17;;;;;;;19.58;12.02;;;5.20;99.90;;;;;;5031962;28;20049;-47
2022/09/29 02:12:44;;;;;;;18.38;11.80;;;5.10;99.90;;;;;;5039493;28;20401;-47
2022/09/29 02:15:16;;;;;;;16.20;10.45;;;5.10;99.90;;;;;;5040787;28;20039;-46
2022/09/29 02:17:46;;;;;;;15.40;10.90;;;5.10;99.90;;;;;;5040749;28;20025;-46
2022/09/29 02:20:13;;;;;;;15.18;11.77;;;5.00;99.90;;;;;;5041623;28;20460;-45
2022/09/29 02:22:39;;;;;;;13.35;9.68;;;5.00;99.90;;;;;;5040994;28;20032;-45
2022/09/29 02:25:09;;;;;;;15.63;10.98;;;5.00;99.90;;;;;;5040843;28;20089;-45
2022/09/29 02:27:35;;;;;;;16.55;10.98;;;5.00;99.90;;;;;;5023742;28;20078;-46
2022/09/29 02:30:02;;;;;;;15.18;11.13;;;5.00;99.90;;;;;;5038526;28;20079;-44
2022/09/29 02:32:28;;;;;;;14.68;10.32;;;5.00;99.90;;;;;;5041479;28;20370;-45
2022/09/29 02:34:55;;;;;;;16.02;11.13;;;5.00;99.90;;;;;;5039727;28;20418;-47
2022/09/29 02:37:47;;;;;;;16.25;12.13;;;5.00;99.90;;;;;;5041297;28;20112;-46
2022/09/29 02:40:21;;;;;;;14.75;10.18;;;5.00;99.90;;;;;;5037529;28;20484;-45
2022/09/29 02:43:17;;;;;;;13.00;9.52;;;5.00;99.90;;;;;;5043120;28;20052;-47
2022/09/29 02:46:04;;;;;;;15.40;10.48;;;4.90;99.90;;;;;;5033527;28;20421;-48
2022/09/29 02:48:38;;;;;;;15.70;10.90;;;4.90;99.90;;;;;;5021227;28;20022;-45
2022/09/29 02:51:20;;;;;;;17.75;11.02;;;4.90;99.90;;;;;;5039514;28;20025;-45
2022/09/29 02:54:18;;;;;;;14.88;10.77;;;4.90;99.90;;;;;;5040807;28;20118;-45
2022/09/29 02:56:57;;;;;;;17.65;10.73;;;4.90;99.90;;;;;;5021134;28;20041;-46
2022/09/29 02:59:34;;;;;;;16.60;11.35;;;4.90;99.90;;;;;;5033432;28;20411;-46
2022/09/29 03:02:00;;;;;;;18.48;10.90;;;4.90;99.90;;;;;;5038960;28;20021;-45
2022/09/29 03:04:27;;;;;;;16.67;10.80;;;4.90;99.90;;;;;;5041151;28;20501;-45
2022/09/29 03:06:53;;;;;;;15.13;10.45;;;4.90;99.90;;;;;;5041052;28;20372;-47
2022/09/29 03:09:19;;;;;;;15.77;10.85;;;4.90;99.90;;;;;;5045149;28;20144;-45
2022/09/29 03:11:44;;;;;;;12.63;10.73;;;4.90;99.90;;;;;;5044417;28;20105;-45
2022/09/29 03:14:11;;;;;;;15.18;10.90;;;4.90;99.90;;;;;;5041682;28;20560;-45
2022/09/29 03:16:37;;;;;;;18.80;11.55;;;4.90;99.90;;;;;;5045746;28;20060;-47
2022/09/29 03:19:04;;;;;;;17.05;11.18;;;4.90;99.90;;;;;;5042665;28;20106;-48
2022/09/29 03:21:30;;;;;;;16.60;11.63;;;4.80;99.90;;;;;;5045371;28;20067;-46
2022/09/29 03:23:56;;;;;;;15.27;10.05;;;4.80;99.90;;;;;;5043500;28;20029;-49
2022/09/29 03:26:22;;;;;;;13.82;10.50;;;4.80;99.90;;;;;;5045234;28;20048;-46
2022/09/29 03:28:51;;;;;;;15.38;10.60;;;4.80;99.90;;;;;;5044396;28;20098;-46
2022/09/29 03:31:18;;;;;;;16.75;10.75;;;4.80;99.90;;;;;;5038508;28;20021;-47
2022/09/29 03:33:43;;;;;;;16.13;11.27;;;4.80;99.90;;;;;;5046687;28;20052;-45
2022/09/29 03:36:10;;;;;;;16.55;11.05;;;4.80;99.90;;;;;;5037572;28;20513;-48
2022/09/29 03:38:36;;;;;;;17.85;11.10;;;4.80;99.90;;;;;;5027126;28;20053;-48
2022/09/29 03:41:02;;;;;;;14.00;10.13;;;4.80;99.90;;;;;;5042604;28;20530;-45
2022/09/29 03:43:28;;;;;;;15.70;10.88;;;4.80;99.90;;;;;;5044499;28;20033;-45
2022/09/29 03:45:55;;;;;;;13.60;11.07;;;4.80;99.90;;;;;;5041409;28;20414;-45
2022/09/29 03:48:21;;;;;;;14.60;9.52;;;4.80;99.90;;;;;;5046744;28;20017;-47
2022/09/29 03:50:49;;;;;;;16.63;9.90;;;4.70;99.90;;;;;;5037081;28;20029;-45
2022/09/29 03:53:15;;;;;;;13.07;10.73;;;4.80;99.90;;;;;;5032632;28;20503;-45
2022/09/29 03:55:45;;;;;;;15.45;11.15;;;4.80;99.90;;;;;;5040287;28;20068;-47
2022/09/29 03:58:11;;;;;;;15.48;11.38;;;4.80;99.90;;;;;;5043504;28;20090;-48
2022/09/29 04:00:36;;;;;;;17.65;11.77;;;4.80;99.90;;;;;;5047227;28;20503;-47
2022/09/29 04:03:02;;;;;;;15.60;10.85;;;4.80;99.90;;;;;;5042265;28;20014;-46
2022/09/29 04:05:29;;;;;;;13.68;10.32;;;4.80;99.90;;;;;;5045357;28;20109;-45
2022/09/29 04:07:54;;;;;;;11.98;9.93;;;4.80;99.90;;;;;;5040830;28;20025;-45
2022/09/29 04:10:20;;;;;;;15.70;11.27;;;4.80;99.90;;;;;;5047236;28;20022;-47
2022/09/29 04:12:46;;;;;;;17.40;11.77;;;4.80;99.90;;;;;;5039966;28;20483;-45
2022/09/29 04:15:12;;;;;;;16.48;11.52;;;4.80;99.90;;;;;;5043780;28;20070;-45
2022/09/29 04:17:37;;;;;;;15.88;11.02;;;4.80;99.90;;;;;;5043268;28;20022;-48
2022/09/29 04:20:03;;;;;;;13.48;10.40;;;4.80;99.90;;;;;;5041365;28;20029;-45
2022/09/29 04:22:29;;;;;;;15.50;10.82;;;4.80;99.90;;;;;;5044650;28;20024;-45
2022/09/29 04:24:55;;;;;;;16.67;11.95;;;4.80;99.90;;;;;;5040744;28;20028;-45
2022/09/29 04:27:21;;;;;;;17.13;11.20;;;4.80;99.90;;;;;;5051196;28;20568;-45
2022/09/29 04:29:47;;;;;;;16.25;11.35;;;4.80;99.90;;;;;;5039711;28;20067;-45
2022/09/29 04:32:12;;;;;;;16.13;11.50;;;4.80;99.90;;;;;;5042613;28;20025;-47
2022/09/29 04:34:38;;;;;;;15.65;11.23;;;4.80;99.90;;;;;;5042638;28;20028;-46
2022/09/29 04:37:03;;;;;;;18.60;11.88;;;4.80;99.90;;;;;;5041676;28;20388;-45
2022/09/29 04:39:29;;;;;;;16.88;10.77;;;4.80;99.90;;;;;;5044755;28;20036;-45
2022/09/29 04:41:55;;;;;;;17.90;11.35;;;4.80;99.90;;;;;;5040186;28;20017;-45
2022/09/29 04:44:23;;;;;;;21.88;12.20;;;4.80;99.90;;;;;;5025708;28;20021;-45
2022/09/29 04:46:49;;;;;;;17.48;11.50;;;4.80;99.90;;;;;;5041884;28;20025;-46
2022/09/29 04:49:15;;;;;;;17.00;12.32;;;4.80;99.90;;;;;;5031637;28;20071;-48
2022/09/29 04:51:40;;;;;;;32.40;20.80;;;4.80;99.90;;;;;;5024643;28;20029;-45
2022/09/29 04:54:06;;;;;;;26.27;19.20;;;4.80;99.90;;;;;;5042332;28;20041;-45
2022/09/29 04:56:31;;;;;;;23.88;15.93;;;4.80;99.90;;;;;;5042727;28;20025;-45
2022/09/29 04:58:58;;;;;;;20.42;13.90;;;4.80;99.90;;;;;;5040889;28;20476;-45
2022/09/29 05:01:24;;;;;;;19.40;14.48;;;4.80;99.90;;;;;;5043478;28;20045;-47
2022/09/29 05:03:49;;;;;;;22.75;14.13;;;4.80;99.90;;;;;;5042835;28;20055;-45
2022/09/29 05:06:16;;;;;;;21.48;13.68;;;4.90;99.90;;;;;;5042224;28;20418;-46
2022/09/29 05:08:42;;;;;;;18.58;14.07;;;4.90;99.90;;;;;;5042883;28;20369;-47
2022/09/29 05:11:08;;;;;;;20.63;13.20;;;4.90;99.90;;;;;;5042048;28;20029;-46
2022/09/29 05:13:35;;;;;;;18.55;13.02;;;4.90;99.90;;;;;;5024541;28;20017;-45
2022/09/29 05:16:01;;;;;;;19.45;12.10;;;4.90;99.90;;;;;;5040376;28;20072;-44
2022/09/29 05:18:28;;;;;;;16.35;12.15;;;4.90;99.90;;;;;;5043893;28;20410;-47
2022/09/29 05:20:53;;;;;;;15.73;11.35;;;4.90;99.90;;;;;;5042079;28;20036;-46
2022/09/29 05:23:19;;;;;;;17.33;11.55;;;4.90;99.90;;;;;;5042121;28;20360;-46
2022/09/29 05:25:45;;;;;;;16.55;12.02;;;4.90;99.90;;;;;;5042373;28;20017;-44
2022/09/29 05:28:13;;;;;;;16.45;11.60;;;4.90;99.90;;;;;;5041736;28;20028;-45
2022/09/29 05:30:39;;;;;;;15.68;11.15;;;4.90;99.90;;;;;;5041946;28;20048;-45
2022/09/29 05:33:05;;;;;;;18.92;12.90;;;5.00;99.90;;;;;;5022142;28;20029;-45
2022/09/29 05:35:31;;;;;;;19.50;12.32;;;5.00;99.90;;;;;;5041961;28;20043;-45
2022/09/29 05:37:56;;;;;;;18.40;12.75;;;5.00;99.90;;;;;;5040714;28;20445;-44
2022/09/29 05:40:23;;;;;;;16.35;11.10;;;5.00;99.90;;;;;;5040269;28;20098;-48
2022/09/29 05:42:49;;;;;;;16.42;12.32;;;5.00;99.90;;;;;;5044428;28;20043;-46
2022/09/29 05:45:15;;;;;;;17.02;11.38;;;5.00;99.90;;;;;;5038615;28;20013;-45
2022/09/29 05:47:44;;;;;;;16.42;12.52;;;5.00;99.90;;;;;;5044619;28;20017;-46
2022/09/29 05:50:11;;;;;;;20.63;13.18;;;5.10;99.90;;;;;;5039165;28;20021;-46
2022/09/29 05:52:38;;;;;;;17.88;12.57;;;5.10;99.90;;;;;;5044241;28;20490;-46
2022/09/29 05:55:04;;;;;;;20.77;15.48;;;5.10;99.90;;;;;;5039899;28;20391;-45
2022/09/29 05:57:30;;;;;;;22.98;13.77;;;5.10;99.90;;;;;;5038379;28;20049;-49
2022/09/29 05:59:56;;;;;;;18.20;12.63;;;5.20;99.90;;;;;;5026590;28;20064;-45
2022/09/29 06:02:21;;;;;;;19.50;12.60;;;5.20;99.90;;;;;;5033058;28;20443;-45
2022/09/29 06:04:47;;;;;;;17.75;13.65;;;5.20;99.90;;;;;;5045620;28;20086;-46
2022/09/29 06:07:12;;;;;;;29.70;18.63;;;5.30;99.90;;;;;;5037675;28;20021;-46
2022/09/29 06:09:38;;;;;;;37.67;24.00;;;5.30;99.90;;;;;;5038305;28;20099;-45
2022/09/29 06:12:04;;;;;;;33.42;22.20;;;5.30;99.90;;;;;;5043638;28;20506;-45
2022/09/29 06:14:29;;;;;;;27.80;18.13;;;5.40;99.90;;;;;;5037781;28;20108;-45
2022/09/29 06:16:55;;;;;;;25.35;17.70;;;5.40;99.90;;;;;;5044700;28;20468;-44
2022/09/29 06:19:20;;;;;;;21.38;15.18;;;5.50;99.90;;;;;;5037968;28;20527;-45
2022/09/29 06:21:46;;;;;;;22.08;16.30;;;5.50;99.90;;;;;;5044923;28;20102;-45
2022/09/29 06:24:12;;;;;;;21.05;15.38;;;5.50;99.90;;;;;;5038128;28;20330;-49
2022/09/29 06:26:37;;;;;;;23.17;15.98;;;5.60;99.90;;;;;;5037807;28;20372;-48
2022/09/29 06:29:03;;;;;;;20.98;15.23;;;5.70;99.90;;;;;;5043774;28;20112;-45
2022/09/29 06:31:30;;;;;;;19.48;14.93;;;5.70;99.90;;;;;;5037213;28;20028;-45
2022/09/29 06:34:01;;;;;;;21.75;14.18;;;5.80;99.90;;;;;;5027095;28;20035;-47
2022/09/29 06:39:17;;;;;;;20.30;13.77;;;5.90;99.90;;;;;;5029169;28;20023;-45
2022/09/29 06:41:47;;;;;;;19.55;14.40;;;5.90;99.90;;;;;;5041296;28;20025;-47
2022/09/29 06:44:14;;;;;;;22.27;15.30;;;6.00;99.90;;;;;;5047425;28;20013;-45
2022/09/29 06:46:39;;;;;;;22.75;15.35;;;6.00;99.90;;;;;;5047428;28;20029;-46
2022/09/29 06:49:05;;;;;;;25.75;17.17;;;6.10;99.90;;;;;;5044993;28;20029;-45
2022/09/29 06:51:31;;;;;;;24.60;16.25;;;6.10;99.90;;;;;;5047182;28;20475;-45
2022/09/29 06:53:56;;;;;;;23.17;16.05;;;6.20;99.90;;;;;;5046585;28;20021;-47
2022/09/29 06:56:22;;;;;;;26.50;16.38;;;6.20;99.90;;;;;;5047175;28;20029;-47
2022/09/29 06:58:47;;;;;;;23.15;15.93;;;6.30;99.90;;;;;;5045549;28;20606;-46
2022/09/29 07:01:13;;;;;;;23.15;16.38;;;6.30;99.90;;;;;;5046955;28;20040;-45
2022/09/29 07:03:39;;;;;;;25.60;17.55;;;6.30;99.90;;;;;;5047470;28;20051;-45
2022/09/29 07:06:05;;;;;;;24.05;16.33;;;6.40;99.90;;;;;;5045712;28;20025;-45
2022/09/29 07:08:34;;;;;;;26.83;18.10;;;6.40;99.90;;;;;;5047616;28;20047;-45
2022/09/29 07:10:59;;;;;;;24.52;17.60;;;6.50;99.90;;;;;;5046916;28;20028;-45
2022/09/29 07:13:26;;;;;;;24.05;16.77;;;6.60;99.90;;;;;;5047168;28;20013;-45
2022/09/29 07:15:53;;;;;;;23.30;17.17;;;6.60;99.90;;;;;;5044842;28;20033;-47
2022/09/29 07:18:18;;;;;;;26.30;17.65;;;6.60;99.90;;;;;;5047614;28;20009;-44
2022/09/29 07:20:44;;;;;;;22.80;16.92;;;6.70;99.90;;;;;;5046710;28;20059;-45
2022/09/29 07:23:09;;;;;;;31.80;19.25;;;6.70;99.90;;;;;;5046734;28;20052;-47
2022/09/29 07:25:35;;;;;;;23.73;17.58;;;6.80;99.90;;;;;;5047452;28;20033;-51
2022/09/29 07:28:01;;;;;;;23.27;17.60;;;6.90;99.90;;;;;;5046740;28;20021;-48
2022/09/29 07:30:27;;;;;;;24.52;17.30;;;6.90;99.90;;;;;;5047408;28;20028;-48
2022/09/29 07:32:56;;;;;;;24.98;17.17;;;7.00;99.90;;;;;;5275697;22;20027;-49
2022/09/29 07:35:22;;;;;;;25.20;18.02;;;7.00;99.90;;;;;;5046758;28;20510;-48
2022/09/29 07:37:52;;;;;;;25.50;18.85;;;7.10;99.90;;;;;;5046247;28;20051;-50
2022/09/29 07:40:18;;;;;;;25.13;18.63;;;7.10;99.90;;;;;;5042036;28;20041;-48
2022/09/29 07:42:44;;;;;;;23.85;17.77;;;7.20;99.90;;;;;;5031475;28;20032;-49
2022/09/29 07:45:09;;;;;;;27.67;18.60;;;7.30;99.90;;;;;;5045138;28;20025;-48
2022/09/29 07:47:35;;;;;;;25.60;18.33;;;7.30;99.90;;;;;;5055761;28;20025;-49
2022/09/29 07:50:00;;;;;;;22.98;17.08;;;7.40;99.90;;;;;;5049524;28;20045;-49
2022/09/29 07:52:26;;;;;;;22.83;17.15;;;7.40;99.90;;;;;;5048007;28;20013;-50
2022/09/29 07:54:52;;;;;;;23.58;16.20;;;7.50;99.90;;;;;;5045544;28;20443;-48
2022/09/29 07:57:17;;;;;;;23.42;17.55;;;7.60;99.90;;;;;;5050689;28;20024;-50
2022/09/29 07:59:43;;;;;;;23.08;17.60;;;7.60;99.90;;;;;;5047964;28;20021;-48
2022/09/29 08:02:09;;;;;;;24.23;18.20;;;7.60;99.90;;;;;;5044035;28;20569;-50
2022/09/29 08:04:35;;;;;;;23.50;16.70;;;7.70;99.90;;;;;;5051932;28;20056;-49
2022/09/29 08:07:00;;;;;;;22.13;15.88;;;7.70;99.90;;;;;;5048524;28;20065;-49
2022/09/29 08:09:26;;;;;;;25.38;17.10;;;7.80;99.90;;;;;;5051224;28;20012;-49
2022/09/29 08:11:51;;;;;;;21.17;16.80;;;7.90;99.90;;;;;;5047128;28;20443;-48
2022/09/29 08:14:17;;;;;;;23.92;17.58;;;7.90;99.90;;;;;;5050190;28;20430;-49
2022/09/29 08:16:43;;;;;;;22.98;16.60;;;8.00;99.90;;;;;;5046738;28;20534;-48
2022/09/29 08:19:08;;;;;;;22.00;16.40;;;8.10;99.90;;;;;;5041741;28;20060;-48
2022/09/29 08:21:35;;;;;;;19.85;15.75;;;8.10;99.90;;;;;;5046317;28;20021;-48
2022/09/29 08:24:05;;;;;;;21.30;16.60;;;8.20;99.90;;;;;;5051755;28;20013;-49
2022/09/29 08:26:34;;;;;;;24.10;19.48;;;8.20;99.90;;;;;;5050428;28;20025;-48
2022/09/29 08:29:02;;;;;;;22.40;18.02;;;8.30;99.90;;;;;;5046805;28;20487;-50
2022/09/29 08:31:29;;;;;;;22.40;17.35;;;8.40;99.90;;;;;;5049156;28;20017;-49
2022/09/29 08:33:59;;;;;;;20.10;16.15;;;8.40;99.90;;;;;;5051275;28;20025;-49
2022/09/29 08:36:25;;;;;;;22.08;17.02;;;8.40;99.90;;;;;;5048691;28;20021;-48
2022/09/29 08:38:53;;;;;;;21.65;17.10;;;8.50;99.90;;;;;;5050416;28;20025;-49
2022/09/29 08:41:34;;;;;;;21.77;16.90;;;8.60;99.90;;;;;;5047262;28;20100;-51
2022/09/29 08:44:06;;;;;;;19.25;15.85;;;8.70;99.90;;;;;;5049803;28;20029;-50
2022/09/29 08:46:40;;;;;;;19.65;14.55;;;8.70;99.90;;;;;;5046821;28;20108;-48
2022/09/29 08:49:16;;;;;;;20.35;15.75;;;8.70;99.90;;;;;;5048732;28;20071;-49
2022/09/29 08:51:49;;;;;;;17.73;14.68;;;8.80;99.90;;;;;;5051352;28;20024;-50
2022/09/29 08:54:23;;;;;;;20.27;15.27;;;8.90;99.90;;;;;;5039070;28;20029;-48
2022/09/29 08:56:48;;;;;;;16.60;13.30;;;9.00;99.90;;;;;;5051323;28;20032;-50
2022/09/29 08:59:14;;;;;;;21.15;14.02;;;9.00;99.90;;;;;;5017528;28;20024;-50
2022/09/29 09:02:07;;;;;;;16.13;12.68;;;9.10;99.90;;;;;;5050817;28;20032;-49
2022/09/29 09:05:03;;;;;;;16.58;13.40;;;9.20;99.90;;;;;;5040689;28;20022;-49
2022/09/29 09:07:34;;;;;;;15.85;11.93;;;9.20;99.90;;;;;;5021109;28;20059;-48
2022/09/29 09:10:03;;;;;;;17.88;14.27;;;9.30;99.90;;;;;;5046575;28;20521;-48
2022/09/29 09:12:43;;;;;;;19.48;15.20;;;9.30;99.90;;;;;;5048672;28;20025;-49
2022/09/29 09:15:27;;;;;;;19.95;14.15;;;9.40;99.90;;;;;;5045320;28;20029;-48
2022/09/29 09:18:10;;;;;;;22.92;16.75;;;9.40;99.90;;;;;;5047723;28;20048;-49
2022/09/29 09:20:45;;;;;;;27.58;17.63;;;9.40;99.90;;;;;;5050783;28;20116;-48
2022/09/29 09:23:24;;;;;;;19.55;15.90;;;9.50;99.90;;;;;;5045759;28;20017;-50
2022/09/29 09:26:10;;;;;;;30.65;20.88;;;9.50;99.90;;;;;;5050800;28;20442;-49
2022/09/29 09:29:03;;;;;;;24.80;15.98;;;9.60;99.90;;;;;;5047794;28;20040;-49
2022/09/29 09:31:42;;;;;;;21.08;14.98;;;9.70;99.90;;;;;;4982731;28;20033;-51
2022/09/29 09:34:21;;;;;;;22.52;17.85;;;9.70;99.90;;;;;;5030304;28;20128;-49
2022/09/29 09:36:49;;;;;;;18.83;14.32;;;9.80;99.90;;;;;;5050676;28;20483;-48
2022/09/29 09:39:24;;;;;;;17.67;13.65;;;9.90;99.90;;;;;;5034427;28;20023;-48
2022/09/29 09:41:53;;;;;;;14.57;12.38;;;10.00;99.90;;;;;;5048695;28;20558;-48
2022/09/29 09:44:21;;;;;;;17.88;14.02;;;10.00;99.90;;;;;;5046302;28;20108;-48
2022/09/29 09:47:00;;;;;;;14.05;12.13;;;10.10;99.90;;;;;;5047906;28;20025;-49
2022/09/29 09:49:31;;;;;;;18.73;12.85;;;10.20;99.90;;;;;;5034256;28;20021;-50
2022/09/29 09:52:02;;;;;;;19.27;15.10;;;10.20;99.90;;;;;;5046727;28;20032;-49
2022/09/29 09:54:35;;;;;;;16.65;13.95;;;10.30;99.90;;;;;;5047944;28;20092;-49
2022/09/29 09:57:16;;;;;;;15.05;12.25;;;10.30;99.90;;;;;;5048405;28;20025;-48
2022/09/29 09:59:53;;;;;;;19.02;12.93;;;10.40;99.90;;;;;;5045858;28;20025;-50
2022/09/29 10:02:21;;;;;;;13.27;11.30;;;10.40;99.90;;;;;;5026697;28;20128;-48
2022/09/29 10:04:54;;;;;;;16.75;14.07;;;10.50;99.90;;;;;;5049762;28;20052;-48
2022/09/29 10:07:22;;;;;;;13.80;12.38;;;10.50;99.90;;;;;;5035171;28;20025;-49
2022/09/29 10:09:49;;;;;;;16.60;10.38;;;10.60;99.90;;;;;;5045355;28;20021;-52
2022/09/29 10:12:17;;;;;;;11.88;10.38;;;10.60;99.90;;;;;;5048043;28;20119;-52
2022/09/29 10:14:59;;;;;;;12.40;9.55;;;10.60;99.90;;;;;;5044082;28;20036;-49
2022/09/29 10:17:30;;;;;;;10.63;8.82;;;10.70;99.90;;;;;;5035516;28;20467;-51
2022/09/29 10:20:04;;;;;;;11.82;9.52;;;10.60;99.90;;;;;;5041017;28;20471;-48
2022/09/29 10:22:30;;;;;;;10.43;9.15;;;10.60;99.90;;;;;;5045555;28;20028;-48
2022/09/29 10:25:15;;;;;;;12.80;9.80;;;10.60;99.90;;;;;;5047990;28;20332;-48
2022/09/29 10:27:51;;;;;;;9.27;8.10;;;10.70;99.90;;;;;;5044880;28;20483;-49
2022/09/29 10:30:22;;;;;;;;;;;10.70;99.90;;;;;;5046703;28;20031;-49
2022/09/29 10:32:49;;;;;;;10.13;9.07;;;10.70;99.90;;;;;;5044226;28;19940;-50
2022/09/29 10:35:23;;;;;;;10.80;8.60;;;10.70;99.90;;;;;;5043682;28;20029;-50
2022/09/29 10:38:04;;;;;;;9.05;8.13;;;10.70;99.90;;;;;;5049353;28;20027;-53
2022/09/29 10:40:34;;;;;;;10.40;8.85;;;10.80;99.90;;;;;;5046697;28;20029;-49
2022/09/29 10:43:22;;;;;;;13.40;11.90;;;10.80;99.90;;;;;;5047514;28;20066;-49
2022/09/29 10:45:48;;;;;;;10.73;8.48;;;10.80;99.90;;;;;;5022559;28;20025;-49
2022/09/29 10:48:14;;;;;;;9.38;8.38;;;10.80;99.90;;;;;;5030068;28;20017;-50
2022/09/29 10:50:55;;;;;;;9.52;7.95;;;10.80;99.90;;;;;;5044335;28;20119;-49
2022/09/29 10:53:35;;;;;;;8.63;7.70;;;10.90;99.90;;;;;;5030283;28;20028;-49
2022/09/29 10:56:15;;;;;;;9.38;8.05;;;10.90;99.90;;;;;;5046359;28;20029;-48
2022/09/29 10:58:44;;;;;;;9.68;7.97;;;10.90;99.90;;;;;;5043868;28;20029;-48
2022/09/29 11:01:12;;;;;;;7.72;6.90;;;10.90;99.90;;;;;;5045534;28;20075;-53
2022/09/29 11:04:00;;;;;;;9.70;8.00;;;10.90;99.90;;;;;;5048907;28;20438;-49
2022/09/29 11:06:27;;;;;;;12.60;8.52;;;11.00;99.90;;;;;;5043369;28;20391;-48
2022/09/29 11:09:00;;;;;;;8.93;7.72;;;11.00;99.90;;;;;;5048269;28;20119;-49
2022/09/29 11:11:26;;;;;;;8.30;7.15;;;11.10;99.90;;;;;;5044170;28;20031;-50
2022/09/29 11:13:52;;;;;;;9.10;7.85;;;11.10;99.90;;;;;;5048557;28;20025;-51
2022/09/29 11:16:26;;;;;;;9.68;7.55;;;11.10;99.90;;;;;;5041327;28;20488;-54
2022/09/29 11:18:56;;;;;;;8.73;7.53;;;11.10;99.90;;;;;;5048989;28;20056;-49
2022/09/29 11:21:42;;;;;;;8.38;7.57;;;11.10;99.90;;;;;;5045120;28;20017;-48
2022/09/29 11:24:22;;;;;;;10.95;8.45;;;11.00;99.90;;;;;;4997977;28;20120;-49
2022/09/29 11:26:59;;;;;;;8.00;7.20;;;11.00;99.90;;;;;;5044510;28;20036;-48
2022/09/29 11:29:31;;;;;;;8.27;7.35;;;11.00;99.90;;;;;;5038923;28;20079;-50
2022/09/29 11:32:03;;;;;;;7.38;6.60;;;11.00;99.90;;;;;;5029645;28;20025;-50
2022/09/29 11:34:41;;;;;;;9.05;8.10;;;11.00;99.90;;;;;;5049134;28;20037;-51
2022/09/29 11:37:39;;;;;;;8.35;7.55;;;11.10;99.90;;;;;;5050935;28;20650;-48
2022/09/29 11:40:28;;;;;;;8.55;7.65;;;11.10;99.90;;;;;;5045945;28;20043;-48
2022/09/29 11:43:03;;;;;;;9.85;7.10;;;11.10;99.90;;;;;;5050244;28;20276;-48
2022/09/29 11:45:55;;;;;;;13.18;8.15;;;11.10;99.90;;;;;;5046916;28;20021;-49
2022/09/29 11:48:23;;;;;;;9.25;8.05;;;11.20;99.90;;;;;;5033267;28;20013;-49
2022/09/29 11:51:02;;;;;;;10.98;8.65;;;11.20;99.90;;;;;;5047789;28;20043;-52
2022/09/29 11:53:37;;;;;;;9.23;7.78;;;11.30;99.90;;;;;;5047438;28;20052;-49
2022/09/29 11:56:30;;;;;;;9.05;8.15;;;11.30;99.90;;;;;;5049277;28;20035;-48
2022/09/29 11:59:31;;;;;;;8.48;7.68;;;11.30;99.90;;;;;;5044944;28;20502;-48
2022/09/29 12:02:16;;;;;;;7.68;6.68;;;11.40;99.90;;;;;;5046253;28;20426;-49
2022/09/29 12:05:08;;;;;;;7.50;6.80;;;11.30;99.90;;;;;;5047856;28;20471;-50
2022/09/29 12:07:56;;;;;;;9.95;7.07;;;11.40;99.90;;;;;;5039988;28;20071;-52
2022/09/29 12:10:49;;;;;;;11.70;7.47;;;11.30;99.90;;;;;;5046415;28;20392;-49
2022/09/29 12:13:25;;;;;;;8.30;7.00;;;11.40;99.90;;;;;;5028993;28;20525;-48
2022/09/29 12:16:02;;;;;;;9.48;7.45;;;11.30;99.90;;;;;;5045374;28;20060;-50
2022/09/29 12:18:40;;;;;;;7.95;6.53;;;11.30;99.90;;;;;;5049602;28;20044;-51
2022/09/29 12:21:08;;;;;;;11.95;8.13;;;11.40;99.90;;;;;;5048318;28;20476;-48
2022/09/29 12:23:37;;;;;;;8.30;6.60;;;11.40;99.90;;;;;;5048219;28;20032;-51
2022/09/29 12:26:09;;;;;;;5.75;5.15;;;11.30;99.90;;;;;;5048556;28;20136;-49
2022/09/29 12:28:56;;;;;;;5.90;5.38;;;11.30;99.90;;;;;;5047063;28;20021;-51
2022/09/29 12:31:46;;;;;;;6.18;5.53;;;11.40;99.90;;;;;;5036125;28;20471;-48
2022/09/29 12:34:20;;;;;;;6.00;5.40;;;11.40;99.90;;;;;;5005789;28;1061768;-51
2022/09/29 12:37:01;;;;;;;6.20;5.22;;;11.40;99.90;;;;;;5043494;28;20051;-48
2022/09/29 12:40:05;;;;;;;6.38;5.20;;;11.40;99.90;;;;;;5018605;28;20021;-50
2022/09/29 12:42:57;;;;;;;4.85;4.32;;;11.40;99.90;;;;;;4994344;28;20037;-49
2022/09/29 12:45:45;;;;;;;6.00;5.40;;;11.40;99.90;;;;;;5033734;28;20184;-50
2022/09/29 12:48:26;;;;;;;5.63;5.00;;;11.40;99.90;;;;;;5042359;28;20100;-50
2022/09/29 12:51:41;;;;;;;6.05;5.00;;;11.40;99.90;;;;;;5042712;28;20379;-49
2022/09/29 12:54:25;;;;;;;5.85;5.10;;;11.40;99.90;;;;;;5027481;28;20037;-53
2022/09/29 12:57:02;;;;;;;5.60;5.03;;;11.40;99.90;;;;;;5033042;28;20116;-50
2022/09/29 12:59:32;;;;;;;5.40;4.90;;;11.50;99.90;;;;;;5045099;28;20117;-48
2022/09/29 13:02:00;;;;;;;5.45;4.95;;;11.50;99.90;;;;;;5050885;28;20438;-50